캔커블룸
| 이름 | 캔커블룸 |
|---|---|
| 무늬 | Cankerbloom |
| 유형 | 생물 — 피렉시아 곰팡이 |
| 설명 | |
| 아티스트 | Nicholas Gregory |
| 판 | The List #ONE-161 |
| 벽지 | |
| 이미지 |
에 대한 캔커블룸
캔커블룸, 생물 — 피렉시아 곰팡이, 에 의해 설계된 Ravenna Tran 에 처음 출시 2023년 1월 편집 중 Phyrexia: All Will Be One 에 정확히 인쇄되었습니다. 4 다른 모양. 게임 보기 1 체재: Modern. 현재 최저가로 판매중입니다 ₩ 768.73.
Cankerbloom은 다양한 제거 옵션과 증식 능력이 필요한 그린 기반 컨트롤 또는 미드레인지 덱에 유용할 것입니다. 옵션에 유연성을 제공하지만 유물 및 마법 제거를 위한 Naturalize나 확산을 위한 Evolution Sage와 같은 카드와 같은 특정 역할에 더 나은 카드가 있을 수 있습니다. Cankerbloom은 다목적 카드를 찾는 덱에서 플레이될 수 있지만 더 집중된 전략에서는 최고의 선택이 아닐 수도 있습니다.
구입처
![]() | TCG Player | 16 uni.
| ₩ 767.15 | 매장 방문 |
![]() | Card Kingdom | 64 uni.
| ₩ 1358.50 | 매장 방문 |
![]() | Ebay.com | 매장 방문 | ||
![]() | Cardkingdom | 매장 방문 | ||
![]() | Printing proxies | $ 0.75 | 매장 방문 |
*이 사이트에는 보상을 받을 수 있는 제휴 링크가 포함되어 있습니다.
그룹
가격 경고 ?
가격이 들어오면 알림
가격 추세 내역

가격 기록
| 날짜 | 최저 가격 | 평균 가격 | 덱 |
|---|---|---|---|
| 2024-09-05 | 675.31 KRW | 902.19 KRW | 12 |
| 2024-09-09 | 643.66 KRW | 841.95 KRW | 8 |
| 2024-09-16 | 620.59 KRW | 764.06 KRW | 7 |
| 2024-09-23 | 606.58 KRW | 682.65 KRW | 7 |
| 2024-09-30 | 597.90 KRW | 668.90 KRW | 1 |
| 2024-10-07 | 534.29 KRW | 605.02 KRW | 9 |
| 2024-10-14 | 536.51 KRW | 605.91 KRW | 5 |
| 2024-10-21 | 536.51 KRW | 605.91 KRW | 4 |
| 2024-10-28 | 536.51 KRW | 605.91 KRW | 2 |
| 2024-11-06 | 536.51 KRW | 605.91 KRW | 5 |
| 2024-11-11 | 536.51 KRW | 605.91 KRW | 4 |
| 2024-11-18 | 536.51 KRW | 605.91 KRW | 10 |
| 2024-11-25 | 536.51 KRW | 605.91 KRW | 9 |
| 2024-12-02 | 536.51 KRW | 605.91 KRW | 4 |
| 2024-12-09 | 536.51 KRW | 605.91 KRW | 4 |
| 2024-12-19 | 536.51 KRW | 605.91 KRW | 2 |
| 2024-12-23 | 536.51 KRW | 605.91 KRW | 1 |
| 2024-12-30 | 536.51 KRW | 605.91 KRW | 2 |
| 2025-01-01 | 536.51 KRW | 605.91 KRW | 3 |
| 2025-01-06 | 536.51 KRW | 605.91 KRW | 2 |
| 2025-01-13 | 536.51 KRW | 605.91 KRW | 5 |
| 2025-01-20 | 536.51 KRW | 605.91 KRW | 5 |
| 2025-01-27 | 536.51 KRW | 605.91 KRW | 4 |
| 2025-02-03 | 536.51 KRW | 605.91 KRW | 4 |
| 2025-02-10 | 536.51 KRW | 605.91 KRW | 1 |
| 2025-04-27 | 576.55 KRW | 843.47 KRW | 0 |
| 2025-04-28 | 585.45 KRW | 823.90 KRW | 0 |
| 2025-05-06 | 604.13 KRW | 796.32 KRW | 0 |
| 2025-05-12 | 552.53 KRW | 779.41 KRW | 0 |
| 2025-05-19 | 557.33 KRW | 800.23 KRW | 2 |
| 2025-05-28 | 565.87 KRW | 783.41 KRW | 5 |
| 2025-06-03 | 652.89 KRW | 854.15 KRW | 3 |
| 2025-06-10 | 644.61 KRW | 874.17 KRW | 3 |
| 2025-06-17 | 566.41 KRW | 816.78 KRW | 1 |
| 2025-06-23 | 454.43 KRW | 777.41 KRW | 4 |
| 2025-07-01 | 437.75 KRW | 771.40 KRW | 1 |
| 2025-07-08 | 494.69 KRW | 801.65 KRW | 0 |
| 2025-07-15 | 465.78 KRW | 836.80 KRW | 0 |
| 2025-07-22 | 429.74 KRW | 827.46 KRW | 1 |
| 2025-07-29 | 349.67 KRW | 738.30 KRW | 3 |
| 2025-08-05 | 293.61 KRW | 776.74 KRW | 0 |
| 2025-08-12 | 394.15 KRW | 790.09 KRW | 2 |
| 2025-08-18 | 435.97 KRW | 853.26 KRW | 1 |
| 2025-08-25 | 392.37 KRW | 846.14 KRW | 0 |
| 2025-09-02 | 360.34 KRW | 835.46 KRW | 1 |
| 2025-09-09 | 360.34 KRW | 835.46 KRW | 1 |
| 2025-09-15 | 360.34 KRW | 835.46 KRW | 1 |
| 2025-09-23 | 360.34 KRW | 835.46 KRW | 4 |
| 2025-09-29 | 360.34 KRW | 835.46 KRW | 0 |
| 2025-10-06 | 360.34 KRW | 835.46 KRW | 2 |
| 2025-10-13 | 360.34 KRW | 835.46 KRW | 0 |
| 2025-10-20 | 360.34 KRW | 835.46 KRW | 3 |
| 2025-10-27 | 360.34 KRW | 835.46 KRW | 0 |
| 2025-11-03 | 360.34 KRW | 835.46 KRW | 1 |
| 2025-11-10 | 360.34 KRW | 835.46 KRW | 1 |
| 2025-11-18 | 360.34 KRW | 835.46 KRW | 3 |
| 2025-11-24 | 360.34 KRW | 835.46 KRW | 1 |
| 2025-12-03 | 360.34 KRW | 835.46 KRW | 3 |
| 2025-12-08 | 360.34 KRW | 835.46 KRW | 5 |
| 2025-12-15 | 360.34 KRW | 835.46 KRW | 4 |
| 2025-12-22 | 360.34 KRW | 835.46 KRW | 1 |
| 2025-12-29 | 360.34 KRW | 835.46 KRW | 0 |
| 2026-01-01 | 360.34 KRW | 835.46 KRW | 0 |
| 2026-01-05 | 360.34 KRW | 835.46 KRW | 0 |
| 2026-01-13 | 360.34 KRW | 835.46 KRW | 2 |
| 2026-01-20 | 360.34 KRW | 835.46 KRW | 1 |
| 2026-01-26 | 360.34 KRW | 835.46 KRW | 1 |
| 2026-02-02 | 360.34 KRW | 835.46 KRW | 1 |
| 2026-02-09 | 360.34 KRW | 835.46 KRW | 0 |
| 2026-02-16 | 360.34 KRW | 835.46 KRW | 0 |
| 2026-02-23 | 360.34 KRW | 835.46 KRW | 0 |
| 2026-03-02 | 360.34 KRW | 835.46 KRW | 3 |
| 2026-03-10 | 360.34 KRW | 835.46 KRW | 0 |
| 2026-03-16 | 360.34 KRW | 835.46 KRW | 3 |
| 2026-04-02 | 360.34 KRW | 835.46 KRW | 0 |
| 2026-04-07 | 360.34 KRW | 835.46 KRW | 0 |
| 2026-04-14 | 360.34 KRW | 835.46 KRW | 0 |
| 2026-04-23 | 360.34 KRW | 835.46 KRW | 0 |
| 2026-04-30 | 360.34 KRW | 835.46 KRW | 1 |
| 2026-05-05 | 360.34 KRW | 835.46 KRW | 2 |
| 2026-05-14 | 360.34 KRW | 835.46 KRW | 0 |
| 2026-05-20 | 360.34 KRW | 835.46 KRW | 0 |
| 2026-05-25 | 360.34 KRW | 835.46 KRW | 0 |
| 2026-06-01 | 360.34 KRW | 835.46 KRW | 0 |
| 2026-06-08 | 360.34 KRW | 835.46 KRW | 3 |
| 2026-06-15 | 360.34 KRW | 835.46 KRW | 0 |
| 2026-06-23 | 360.34 KRW | 835.46 KRW | 0 |
| 2026-06-29 | 360.34 KRW | 835.46 KRW | 0 |
| 2026-07-06 | 612.39 KRW | 915.54 KRW | 0 |
| 2026-07-13 | 973.88 KRW | 1039.47 KRW | 1 |
| 2026-07-20 | 1026.12 KRW | 1059.68 KRW | 1 |
| 2026-07-27 | 814.11 KRW | 987.61 KRW | 0 |
| 2026-08-03 | 807.63 KRW | 1049.76 KRW | 0 |
| 2026-08-10 | 864.82 KRW | 1034.13 KRW | 1 |
| 2026-08-17 | 828.79 KRW | 993.39 KRW | 0 |
| 2026-08-24 | 815.25 KRW | 1074.55 KRW | 0 |
| 2026-09-01 | 762.73 KRW | 1167.78 KRW | 0 |
자주 묻는 질문 캔커블룸
카드 종류: 캔커블룸?
캔커블룸 ~이다 생물 — 피렉시아 곰팡이 카드 인 Magic: the Gathering MTG.
카드 효과: 캔커블룸?
{1}, 칸커블룸 희생: 선택하십시오 — • 대상 아티팩트를 파괴합니다. • 대상 마법을 파괴합니다. • 번식합니다. (임의의 영구물과/또는 플레이어들 중 선택한 수만큼, 그리고 이미 존재하는 종류마다 다른 카운터를 하나씩 부여합니다.)
가격: 캔커블룸?
캔커블룸 현재 시작 시간: ₩ 768.73. 위의 구매처 섹션에서 여러 판매자의 실시간 가격을 확인하세요.
최초 수록 세트: 캔커블룸?
캔커블룸 세트로 처음 출시되었습니다 Phyrexia: All Will Be One, 에 의해 설명 Ravenna Tran.
사용 가능 포맷: 캔커블룸?
합법성은 토너먼트 형식에 따라 다릅니다. 캔커블룸 일부 형식에서는 합법적일 수 있지만 다른 형식에서는 금지되거나 제한될 수 있습니다. 위의 합법성 섹션에서 형식별 전체 분석을 참조하세요.
경쟁 포맷: 캔커블룸?
캔커블룸 경쟁적인 메타게임 플레이를 봅니다. 1 형식: Modern.
비슷한 카드: 캔커블룸?
와 유사한 문자 캔커블룸 포함하다 대의를 위한 순교자, 구리 다리긴 다리, Kinetic Ooze. 위의 유사한 카드 섹션에서 전체 목록을 확인하세요.






반응
0
0 코멘트
첫 댓글을 남겨보세요